Time;durP1;ratioP1;P1;durP2;ratioP2;P2;SDS_P1;SDS_P2;PMS_P1;PMS_P2;Temp;Humidity;BMP_temperature;BMP_pressure;BME280_temperature;BME280_humidity;BME280_pressure;Samples;Min_cycle;Max_cycle;Signal;HPM_P1;HPM_P2
2024/03/06 05:00:31;;;;;;;4.27;4.00;;;1.00;97.30;;;;;;6020620;23;21175;-86
2024/03/06 05:02:57;;;;;;;5.80;3.03;;;0.90;97.30;;;;;;4974519;28;20856;-87
2024/03/06 05:05:23;;;;;;;3.00;2.80;;;0.90;97.30;;;;;;5004751;28;20177;-87
2024/03/06 05:07:48;;;;;;;2.67;2.47;;;0.80;97.30;;;;;;4981816;28;20205;-87
2024/03/06 05:10:16;;;;;;;5.33;4.00;;;0.80;97.30;;;;;;4992995;28;20801;-89
2024/03/06 05:12:44;;;;;;;1.87;1.77;;;0.80;97.30;;;;;;4961361;28;20292;-87
2024/03/06 05:15:12;;;;;;;3.37;3.17;;;0.80;97.30;;;;;;4994572;28;20467;-88
2024/03/06 05:17:38;;;;;;;3.40;3.20;;;0.80;97.30;;;;;;4982297;28;20426;-88
2024/03/06 05:20:04;;;;;;;4.70;2.50;;;0.80;97.30;;;;;;4975230;28;20504;-90
2024/03/06 05:22:30;;;;;;;3.43;3.23;;;0.80;97.30;;;;;;4975653;28;20206;-91
2024/03/06 05:24:56;;;;;;;2.40;2.20;;;0.80;97.30;;;;;;4975511;28;20505;-85
2024/03/06 05:27:26;;;;;;;4.30;3.23;;;0.90;97.30;;;;;;4978293;28;20484;-89
2024/03/06 05:29:52;;;;;;;3.63;3.20;;;0.90;97.30;;;;;;4973539;28;20504;-92
2024/03/06 05:32:17;;;;;;;2.63;2.43;;;0.90;97.30;;;;;;4965047;28;20970;-86
2024/03/06 05:34:44;;;;;;;2.30;2.10;;;0.90;97.30;;;;;;4974662;28;20439;-90
2024/03/06 05:37:12;;;;;;;4.17;3.23;;;0.90;97.30;;;;;;4972455;28;20189;-92
2024/03/06 05:39:38;;;;;;;3.33;2.93;;;0.90;97.30;;;;;;4970004;28;20422;-87
2024/03/06 05:42:04;;;;;;;13.07;2.07;;;0.90;97.30;;;;;;4970778;28;20445;-88
2024/03/06 05:44:31;;;;;;;5.53;2.30;;;0.90;97.30;;;;;;4991049;28;20211;-87
2024/03/06 05:46:58;;;;;;;3.00;2.40;;;0.90;97.30;;;;;;4973837;28;20461;-88
2024/03/06 05:49:23;;;;;;;4.80;4.50;;;0.80;97.30;;;;;;4974368;28;20417;-88
2024/03/06 05:51:49;;;;;;;4.77;4.47;;;0.80;97.30;;;;;;4975212;28;20440;-90
2024/03/06 05:54:15;;;;;;;2.27;2.07;;;0.80;97.30;;;;;;4974675;28;20181;-87
2024/03/06 05:56:42;;;;;;;9.17;2.43;;;0.80;97.30;;;;;;4970337;28;20186;-86
2024/03/06 05:59:07;;;;;;;7.40;2.87;;;0.80;97.30;;;;;;4971412;28;20601;-85
2024/03/06 06:01:36;;;;;;;2.50;2.30;;;0.80;97.30;;;;;;4992529;28;20461;-86
2024/03/06 06:04:02;;;;;;;2.13;1.97;;;0.80;97.30;;;;;;4974750;28;20358;-87
2024/03/06 06:06:33;;;;;;;2.43;2.27;;;0.80;97.30;;;;;;4965888;28;20532;-88
2024/03/06 06:08:58;;;;;;;10.23;2.73;;;0.80;97.30;;;;;;4976132;28;21145;-86
2024/03/06 06:11:24;;;;;;;6.93;3.10;;;0.80;97.30;;;;;;4968288;28;20453;-86
2024/03/06 06:13:52;;;;;;;15.87;3.83;;;0.80;97.30;;;;;;4975704;28;20190;-88
2024/03/06 06:16:17;;;;;;;2.43;2.03;;;0.80;97.30;;;;;;4983914;28;20263;-87
2024/03/06 06:18:43;;;;;;;4.27;4.00;;;0.80;97.30;;;;;;4975709;28;20424;-88
2024/03/06 06:21:09;;;;;;;2.60;2.13;;;0.90;97.30;;;;;;4975792;28;20205;-88
2024/03/06 06:23:34;;;;;;;3.10;2.27;;;0.90;97.30;;;;;;4975665;28;20178;-87
2024/03/06 06:26:00;;;;;;;4.70;2.80;;;0.90;97.30;;;;;;4982770;28;20224;-87
2024/03/06 06:28:26;;;;;;;3.37;2.93;;;0.90;97.30;;;;;;4980864;28;20429;-88
2024/03/06 06:30:52;;;;;;;2.57;2.37;;;0.90;97.30;;;;;;4971869;28;20270;-87
2024/03/06 06:33:19;;;;;;;1.70;1.60;;;0.90;97.30;;;;;;4967710;28;20466;-86
2024/03/06 06:35:44;;;;;;;3.97;2.93;;;1.00;97.30;;;;;;4977437;28;20429;-87
2024/03/06 06:38:10;;;;;;;3.60;2.33;;;1.00;97.30;;;;;;4972191;28;20440;-86
2024/03/06 06:40:36;;;;;;;2.67;2.50;;;1.00;97.30;;;;;;4962240;28;20190;-88
2024/03/06 06:43:01;;;;;;;3.33;2.73;;;1.00;97.30;;;;;;4977499;28;20495;-87
2024/03/06 06:45:27;;;;;;;8.80;3.93;;;1.10;97.30;;;;;;4977462;28;20698;-86
2024/03/06 06:47:53;;;;;;;3.63;2.10;;;1.10;97.30;;;;;;4972311;28;20268;-92
2024/03/06 06:50:21;;;;;;;2.43;2.23;;;1.10;97.30;;;;;;4976383;28;20317;-91
2024/03/06 06:52:47;;;;;;;5.80;2.53;;;1.20;97.30;;;;;;4977563;28;20567;-89
2024/03/06 06:55:13;;;;;;;3.93;2.90;;;1.20;97.30;;;;;;4969284;28;20442;-87
2024/03/06 06:57:38;;;;;;;3.33;3.23;;;1.30;97.30;;;;;;4971480;28;20193;-86
2024/03/06 07:00:10;;;;;;;9.20;4.77;;;1.30;97.30;;;;;;4971056;28;20432;-87
2024/03/06 07:02:37;;;;;;;3.87;3.67;;;1.40;97.30;;;;;;4974978;28;20241;-87
2024/03/06 07:05:05;;;;;;;2.30;2.10;;;1.40;97.30;;;;;;4976423;28;20426;-88
2024/03/06 07:07:31;;;;;;;2.90;2.30;;;1.50;97.30;;;;;;4980675;28;20478;-88
2024/03/06 07:09:56;;;;;;;5.13;3.10;;;1.60;97.30;;;;;;4978989;28;20499;-87
2024/03/06 07:12:25;;;;;;;3.57;3.37;;;1.60;97.30;;;;;;4975438;28;20751;-87
2024/03/06 07:14:50;;;;;;;4.13;3.90;;;1.70;97.30;;;;;;4974968;28;20207;-87
2024/03/06 07:17:16;;;;;;;2.70;2.50;;;1.80;97.30;;;;;;4974506;28;20426;-89
2024/03/06 07:19:41;;;;;;;3.17;2.87;;;1.90;97.30;;;;;;4975326;28;20615;-87
2024/03/06 07:22:07;;;;;;;10.27;3.47;;;2.00;97.30;;;;;;4975199;28;20206;-87
2024/03/06 07:24:32;;;;;;;5.10;4.80;;;2.00;97.30;;;;;;4975337;28;20194;-86
2024/03/06 07:27:01;;;;;;;2.30;2.10;;;2.10;97.30;;;;;;4974904;28;20206;-87
2024/03/06 07:29:27;;;;;;;3.10;2.90;;;2.10;97.30;;;;;;4974315;28;20183;-88
2024/03/06 07:31:53;;;;;;;4.07;3.47;;;2.20;97.30;;;;;;4976056;28;20444;-87
2024/03/06 07:34:20;;;;;;;1.40;1.30;;;2.30;97.30;;;;;;4973963;28;20190;-88
2024/03/06 07:36:46;;;;;;;5.53;2.93;;;2.40;97.30;;;;;;4968465;28;20426;-88
2024/03/06 07:39:14;;;;;;;3.60;2.00;;;2.50;97.30;;;;;;4970911;28;20520;-86
2024/03/06 07:41:40;;;;;;;6.53;4.20;;;2.50;97.30;;;;;;4965626;28;20202;-87
2024/03/06 07:44:05;;;;;;;7.93;5.50;;;2.60;97.30;;;;;;4974300;28;20432;-87
2024/03/06 07:46:31;;;;;;;3.30;3.10;;;2.60;97.30;;;;;;4973347;28;20237;-87
2024/03/06 07:48:57;;;;;;;4.00;3.83;;;2.70;97.30;;;;;;4974534;28;20174;-87
2024/03/06 07:51:23;;;;;;;7.17;3.90;;;2.70;97.30;;;;;;4974637;28;20249;-87
2024/03/06 07:53:50;;;;;;;11.33;5.27;;;2.80;97.30;;;;;;4978640;28;20232;-87
2024/03/06 07:56:16;;;;;;;7.87;4.03;;;2.90;97.30;;;;;;4977077;28;20432;-85
2024/03/06 07:58:41;;;;;;;14.30;4.03;;;2.90;97.30;;;;;;4973936;28;20418;-87
2024/03/06 08:01:07;;;;;;;8.70;4.47;;;3.00;97.30;;;;;;4973376;28;20469;-87
2024/03/06 08:03:33;;;;;;;11.90;5.40;;;3.10;97.30;;;;;;4973970;28;20179;-87
2024/03/06 08:05:59;;;;;;;7.10;3.80;;;3.20;97.30;;;;;;4973798;28;20175;-88
2024/03/06 08:08:25;;;;;;;4.23;4.00;;;3.30;97.30;;;;;;4973470;28;20433;-88
2024/03/06 08:10:50;;;;;;;13.43;6.73;;;3.30;97.30;;;;;;4973592;28;20441;-88
2024/03/06 08:13:16;;;;;;;6.87;4.43;;;3.40;97.30;;;;;;4965566;28;20492;-87
2024/03/06 08:15:44;;;;;;;5.70;4.10;;;3.60;97.30;;;;;;4965284;28;20192;-88
2024/03/06 08:18:09;;;;;;;2.90;2.50;;;3.70;97.30;;;;;;4989331;28;20182;-88
2024/03/06 08:20:35;;;;;;;27.53;4.37;;;3.80;97.30;;;;;;4981240;28;20435;-87
2024/03/06 08:23:02;;;;;;;4.97;4.67;;;3.90;97.30;;;;;;4968506;28;20187;-86
2024/03/06 08:25:28;;;;;;;10.33;5.00;;;3.90;97.30;;;;;;4963195;28;20289;-86
2024/03/06 08:27:53;;;;;;;5.57;4.10;;;3.90;97.30;;;;;;4972454;28;21035;-88
2024/03/06 08:30:19;;;;;;;12.50;5.20;;;4.00;97.30;;;;;;4973488;28;20190;-86
2024/03/06 08:32:45;;;;;;;15.40;5.10;;;4.20;97.30;;;;;;4961177;28;20238;-87
2024/03/06 08:35:12;;;;;;;7.20;5.17;;;4.20;97.30;;;;;;4952882;28;20427;-88
2024/03/06 08:37:39;;;;;;;12.67;5.60;;;4.20;97.30;;;;;;4967396;28;20198;-88
2024/03/06 08:40:05;;;;;;;7.90;3.30;;;4.30;97.30;;;;;;4965994;28;20474;-87
2024/03/06 08:42:32;;;;;;;3.40;3.20;;;4.30;97.30;;;;;;4963815;28;20450;-89
2024/03/06 08:44:58;;;;;;;21.90;5.47;;;4.40;97.30;;;;;;4966811;28;20422;-87
2024/03/06 08:47:23;;;;;;;6.90;5.47;;;4.40;97.30;;;;;;4960395;28;20990;-89
2024/03/06 08:49:51;;;;;;;6.23;2.90;;;4.50;97.30;;;;;;4964779;28;20179;-87
2024/03/06 08:52:16;;;;;;;8.20;5.80;;;4.50;97.30;;;;;;4971759;28;20225;-87
2024/03/06 08:54:42;;;;;;;4.17;3.93;;;4.60;97.30;;;;;;4973425;28;20940;-87
2024/03/06 08:57:08;;;;;;;3.80;2.90;;;4.70;97.30;;;;;;4975612;28;20179;-90
2024/03/06 08:59:34;;;;;;;9.93;5.00;;;4.80;97.30;;;;;;4953381;28;20190;-86
2024/03/06 09:02:15;;;;;;;10.70;7.00;;;4.90;97.30;;;;;;4956617;28;20501;-87
2024/03/06 09:04:42;;;;;;;3.33;3.00;;;5.00;97.30;;;;;;4963505;28;20453;-89
2024/03/06 09:07:07;;;;;;;5.50;3.57;;;5.10;97.30;;;;;;4963371;28;20465;-90
2024/03/06 09:09:34;;;;;;;6.27;5.90;;;5.20;97.30;;;;;;4987990;28;20470;-89
2024/03/06 09:12:04;;;;;;;11.10;5.67;;;5.30;97.30;;;;;;4966638;28;20289;-87
2024/03/06 09:14:33;;;;;;;7.33;4.60;;;5.40;97.30;;;;;;4961465;28;20931;-90
2024/03/06 09:16:59;;;;;;;4.37;4.07;;;5.50;97.30;;;;;;4966048;28;20426;-87
2024/03/06 09:19:25;;;;;;;5.97;4.73;;;5.60;97.30;;;;;;4968784;28;20429;-87
2024/03/06 09:21:50;;;;;;;13.13;7.03;;;5.60;97.30;;;;;;4963470;28;21011;-88
2024/03/06 09:24:16;;;;;;;17.70;6.93;;;5.70;97.30;;;;;;4971702;28;20190;-89
2024/03/06 09:26:41;;;;;;;8.57;6.00;;;5.80;97.30;;;;;;4987512;28;20723;-87
2024/03/06 09:29:07;;;;;;;9.03;4.90;;;5.90;97.30;;;;;;4957782;28;20307;-88
2024/03/06 09:31:32;;;;;;;5.43;5.07;;;6.00;97.30;;;;;;4952477;28;20681;-87
2024/03/06 09:33:58;;;;;;;5.00;3.60;;;6.10;97.30;;;;;;4964981;28;20274;-87
2024/03/06 09:36:25;;;;;;;7.70;5.63;;;6.20;97.30;;;;;;4963555;28;20269;-87
2024/03/06 09:38:50;;;;;;;7.33;4.90;;;6.30;97.30;;;;;;4959492;28;20194;-87
2024/03/06 09:41:16;;;;;;;15.00;6.50;;;6.30;97.30;;;;;;4967107;28;20450;-87
2024/03/06 09:43:44;;;;;;;20.00;7.13;;;6.40;97.30;;;;;;4971409;28;20214;-87
2024/03/06 09:46:10;;;;;;;21.00;7.27;;;6.60;97.30;;;;;;4971400;28;20195;-87
2024/03/06 09:48:35;;;;;;;10.80;4.03;;;6.80;97.30;;;;;;4985777;28;20426;-88
2024/03/06 09:51:02;;;;;;;7.53;3.50;;;6.90;97.30;;;;;;4957402;28;20237;-88
2024/03/06 09:53:28;;;;;;;15.17;5.47;;;6.90;97.30;;;;;;4963413;28;20627;-87
2024/03/06 09:55:56;;;;;;;15.27;5.20;;;6.90;97.30;;;;;;4963680;28;20493;-89
2024/03/06 09:58:21;;;;;;;3.97;3.73;;;7.00;97.30;;;;;;4963966;28;20179;-90
2024/03/06 10:00:49;;;;;;;14.43;8.03;;;7.10;97.30;;;;;;4973946;28;20495;-87
2024/03/06 10:03:15;;;;;;;13.80;6.23;;;7.20;97.30;;;;;;4975814;28;20664;-85
2024/03/06 10:05:43;;;;;;;22.00;8.10;;;7.20;97.30;;;;;;4978234;28;20508;-88
2024/03/06 10:08:09;;;;;;;3.57;3.37;;;7.30;97.30;;;;;;4970207;28;20223;-88
2024/03/06 10:10:36;;;;;;;12.70;7.63;;;7.30;97.30;;;;;;4968969;28;20921;-87
2024/03/06 10:13:02;;;;;;;9.03;5.00;;;7.50;97.30;;;;;;4971835;28;20182;-87
2024/03/06 10:15:28;;;;;;;18.80;8.57;;;7.70;97.30;;;;;;4982205;28;20715;-86
2024/03/06 10:18:13;;;;;;;7.20;5.63;;;7.70;97.30;;;;;;4977901;28;20791;-87
2024/03/06 10:20:39;;;;;;;20.07;7.20;;;7.80;97.30;;;;;;4987383;28;20736;-87
2024/03/06 10:23:05;;;;;;;16.00;4.80;;;7.90;97.30;;;;;;4978884;28;20950;-88
2024/03/06 10:25:30;;;;;;;15.57;6.00;;;8.10;97.30;;;;;;4969351;28;20421;-87
2024/03/06 10:28:03;;;;;;;8.90;6.53;;;8.20;97.30;;;;;;4971004;28;20250;-87
2024/03/06 10:30:31;;;;;;;22.97;6.10;;;8.30;97.30;;;;;;4969949;28;20657;-87
2024/03/06 10:32:56;;;;;;;11.70;8.93;;;8.40;97.30;;;;;;4978313;28;20413;-86
2024/03/06 10:35:25;;;;;;;10.43;7.53;;;8.50;97.30;;;;;;4978097;28;20945;-88
2024/03/06 10:37:54;;;;;;;9.53;5.53;;;8.60;97.30;;;;;;4963657;28;20174;-88
2024/03/06 10:40:20;;;;;;;5.23;4.93;;;8.70;97.30;;;;;;4973706;28;20459;-90
2024/03/06 10:42:46;;;;;;;12.13;7.93;;;8.70;97.30;;;;;;4971172;23;21103;-62
2024/03/06 10:45:20;;;;;;;7.20;6.80;;;8.70;97.30;;;;;;4961362;28;20425;-62
2024/03/06 10:47:48;;;;;;;14.27;7.10;;;8.70;97.30;;;;;;4992374;28;20552;-62
2024/03/06 10:50:15;;;;;;;5.60;4.60;;;8.70;97.30;;;;;;4973297;28;20881;-62
2024/03/06 10:52:41;;;;;;;7.87;5.87;;;8.80;97.30;;;;;;4935950;29;20467;-63
2024/03/06 10:55:08;;;;;;;10.23;4.83;;;8.60;97.30;;;;;;4958398;28;20483;-63
2024/03/06 10:57:36;;;;;;;5.17;4.80;;;8.80;97.30;;;;;;4959439;28;20443;-62
2024/03/06 11:00:02;;;;;;;16.60;7.60;;;8.80;97.30;;;;;;4957357;28;20423;-63
2024/03/06 11:02:29;;;;;;;10.90;7.07;;;8.80;97.30;;;;;;4952806;28;20534;-62
2024/03/06 11:04:54;;;;;;;11.53;5.47;;;8.80;97.30;;;;;;4956634;28;20421;-62
2024/03/06 11:07:20;;;;;;;19.53;6.27;;;8.90;97.30;;;;;;4965299;28;20469;-62
2024/03/06 11:09:49;;;;;;;10.93;5.57;;;8.90;97.30;;;;;;4943003;28;20183;-62
2024/03/06 11:12:39;;;;;;;12.00;6.23;;;9.10;97.30;;;;;;4938099;28;20466;-62
2024/03/06 11:15:16;;;;;;;7.73;6.67;;;9.20;97.30;;;;;;4953484;28;20830;-62
2024/03/06 11:17:42;;;;;;;10.57;5.10;;;9.30;97.30;;;;;;4958113;28;20473;-62
2024/03/06 11:20:12;;;;;;;10.93;7.07;;;9.20;97.30;;;;;;4955941;28;20442;-63
2024/03/06 11:22:59;;;;;;;11.20;5.03;;;9.20;97.30;;;;;;4938339;29;20437;-62
2024/03/06 11:25:43;;;;;;;19.57;7.27;;;9.00;97.30;;;;;;4940305;28;20867;-63
2024/03/06 11:28:10;;;;;;;6.83;6.00;;;8.80;97.30;;;;;;4945602;28;20473;-62
2024/03/06 11:31:11;;;;;;;6.70;4.50;;;8.70;97.30;;;;;;4938267;28;20483;-62
2024/03/06 11:33:47;;;;;;;8.33;3.67;;;8.60;97.30;;;;;;4957618;28;20757;-62
2024/03/06 11:36:30;;;;;;;40.23;8.13;;;8.50;97.30;;;;;;4958457;28;20512;-62
2024/03/06 11:39:08;;;;;;;14.27;7.17;;;8.60;97.30;;;;;;4932496;29;20438;-62
2024/03/06 11:41:50;;;;;;;13.43;3.97;;;8.90;97.30;;;;;;4930939;28;20505;-62
2024/03/06 11:44:21;;;;;;;5.17;4.87;;;9.50;97.30;;;;;;4964396;28;20512;-61
2024/03/06 11:47:00;;;;;;;8.83;6.27;;;9.70;97.30;;;;;;4953936;28;20663;-62
2024/03/06 11:49:34;;;;;;;9.93;6.70;;;10.20;97.30;;;;;;4953144;28;20419;-62
2024/03/06 11:52:07;;;;;;;13.70;7.53;;;10.30;96.80;;;;;;4943297;28;20449;-61
2024/03/06 11:54:39;;;;;;;14.10;5.67;;;10.40;96.80;;;;;;4934391;29;20520;-62
2024/03/06 11:57:06;;;;;;;8.87;5.60;;;10.60;96.10;;;;;;4938981;28;20452;-62
2024/03/06 11:59:39;;;;;;;12.80;5.70;;;10.80;96.00;;;;;;4939474;28;20427;-62
2024/03/06 12:02:10;;;;;;;9.53;6.73;;;10.70;95.40;;;;;;4934458;29;20553;-62
2024/03/06 12:04:44;;;;;;;14.40;6.00;;;10.90;94.60;;;;;;4949470;28;20942;-62
2024/03/06 12:07:13;;;;;;;6.47;4.10;;;11.10;93.30;;;;;;4955080;28;20532;-62
2024/03/06 12:09:39;;;;;;;11.10;4.90;;;11.20;93.80;;;;;;4939588;28;20435;-62
2024/03/06 12:12:13;;;;;;;6.70;4.30;;;11.50;94.10;;;;;;4942672;28;20513;-61
2024/03/06 12:14:40;;;;;;;10.03;7.57;;;11.60;92.60;;;;;;4948880;29;20454;-62
2024/03/06 12:17:15;;;;;;;9.70;4.57;;;11.60;92.00;;;;;;4933768;29;20442;-62
2024/03/06 12:19:48;;;;;;;9.40;5.00;;;11.70;92.80;;;;;;4936395;29;20485;-62
2024/03/06 12:22:18;;;;;;;12.23;4.83;;;11.30;92.70;;;;;;5006111;23;20503;-84
2024/03/06 12:25:05;;;;;;;13.43;6.10;;;10.60;93.40;;;;;;4987636;28;20459;-86
2024/03/06 12:27:47;;;;;;;12.00;7.03;;;10.10;94.90;;;;;;4973783;28;20463;-86
2024/03/06 12:31:11;;;;;;;;;;;;;;;;;;;;;
2024/03/06 12:33:36;;;;;;;8.53;6.57;;;10.70;94.30;;;;;;4964923;28;20520;-86
2024/03/06 12:36:26;;;;;;;9.47;5.53;;;11.00;91.60;;;;;;4946758;28;20426;-84
2024/03/06 12:39:21;;;;;;;8.20;6.07;;;11.40;91.90;;;;;;4954238;28;20420;-84
2024/03/06 12:41:57;;;;;;;6.00;5.67;;;11.70;91.70;;;;;;4948859;28;20827;-86
2024/03/06 12:44:26;;;;;;;5.93;3.17;;;11.70;89.70;;;;;;4955323;28;20417;-84
2024/03/06 12:46:58;;;;;;;7.93;4.50;;;11.70;89.80;;;;;;4972056;28;20458;-86
2024/03/06 12:49:26;;;;;;;12.27;5.83;;;11.40;89.60;;;;;;4961890;28;20426;-84
2024/03/06 12:51:58;;;;;;;6.27;2.80;;;10.90;90.40;;;;;;4952822;28;20438;-83
2024/03/06 12:54:38;;;;;;;9.17;5.30;;;10.50;91.80;;;;;;4960576;28;20425;-86
2024/03/06 12:57:08;;;;;;;5.53;4.00;;;10.60;93.40;;;;;;4966492;28;20509;-84
2024/03/06 12:59:33;;;;;;;16.13;6.97;;;10.90;93.90;;;;;;4953421;28;20493;-84
2024/03/06 13:01:59;;;;;;;6.43;4.13;;;10.90;91.70;;;;;;4955052;28;20995;-84
2024/03/06 13:04:24;;;;;;;9.13;4.40;;;10.60;92.50;;;;;;4954749;28;20604;-84
2024/03/06 13:06:50;;;;;;;11.53;5.60;;;10.50;92.60;;;;;;4968321;28;20206;-84
2024/03/06 13:09:15;;;;;;;7.37;4.67;;;10.80;92.10;;;;;;4955084;28;20270;-85
2024/03/06 13:11:44;;;;;;;10.90;5.73;;;11.20;90.30;;;;;;4950765;28;20257;-85
2024/03/06 13:14:11;;;;;;;16.20;5.70;;;11.30;89.20;;;;;;4954885;28;20242;-85
2024/03/06 13:16:37;;;;;;;5.77;4.00;;;11.10;89.90;;;;;;4954488;28;20410;-85
2024/03/06 13:19:03;;;;;;;9.83;4.47;;;11.10;90.10;;;;;;4964283;28;20769;-86
2024/03/06 13:21:29;;;;;;;7.67;4.87;;;11.00;90.90;;;;;;4950614;28;20231;-85
2024/03/06 13:23:54;;;;;;;8.57;6.60;;;10.90;91.20;;;;;;4950511;28;20426;-87
2024/03/06 13:26:20;;;;;;;4.20;3.83;;;11.00;90.80;;;;;;4950606;28;20245;-87
2024/03/06 13:28:46;;;;;;;4.50;3.93;;;11.40;89.90;;;;;;4954578;28;20189;-84
2024/03/06 13:31:12;;;;;;;8.33;4.03;;;11.60;88.90;;;;;;4963408;28;20434;-84
2024/03/06 13:33:38;;;;;;;3.63;3.20;;;11.90;86.70;;;;;;4968009;28;20185;-85
2024/03/06 13:36:04;;;;;;;4.83;3.37;;;12.10;86.40;;;;;;4947929;28;20858;-84
2024/03/06 13:38:29;;;;;;;11.57;5.60;;;12.30;84.80;;;;;;4966376;28;20171;-84
2024/03/06 13:40:55;;;;;;;7.87;4.10;;;12.40;84.70;;;;;;4952189;28;20265;-84
2024/03/06 13:43:23;;;;;;;11.17;3.97;;;12.60;84.00;;;;;;4965535;28;20586;-84
2024/03/06 13:45:52;;;;;;;1.97;1.87;;;12.70;84.70;;;;;;4962794;28;20179;-84
2024/03/06 13:48:18;;;;;;;4.43;3.10;;;12.80;83.10;;;;;;4944402;28;20462;-84
2024/03/06 13:50:44;;;;;;;6.87;4.33;;;13.00;82.00;;;;;;4950152;28;20418;-85
2024/03/06 13:53:10;;;;;;;1.90;1.80;;;13.10;83.10;;;;;;4947492;28;21003;-85
2024/03/06 13:55:36;;;;;;;7.20;4.40;;;13.10;81.70;;;;;;4950560;28;20622;-84
2024/03/06 13:58:02;;;;;;;9.10;3.73;;;13.10;81.90;;;;;;4967966;28;20513;-84
2024/03/06 14:00:28;;;;;;;5.27;1.80;;;13.10;82.00;;;;;;4968107;28;20186;-85
2024/03/06 14:02:53;;;;;;;3.07;2.87;;;13.10;81.60;;;;;;4950969;28;20453;-84
2024/03/06 14:05:24;;;;;;;2.93;1.90;;;13.10;81.30;;;;;;4954686;28;20347;-85
2024/03/06 14:07:50;;;;;;;3.93;3.30;;;13.20;81.30;;;;;;4950637;28;20254;-84
2024/03/06 14:10:19;;;;;;;3.43;2.23;;;13.20;80.30;;;;;;4950186;28;20438;-84
2024/03/06 14:12:45;;;;;;;6.13;3.37;;;13.20;80.80;;;;;;4949526;28;20487;-84
2024/03/06 14:15:12;;;;;;;7.57;3.57;;;13.20;80.70;;;;;;4970865;28;20418;-84
2024/03/06 14:17:38;;;;;;;9.07;5.23;;;13.00;81.40;;;;;;4954227;28;20959;-87
2024/03/06 14:20:06;;;;;;;8.13;3.83;;;13.10;81.50;;;;;;4967707;28;20446;-84
2024/03/06 14:22:31;;;;;;;5.63;2.80;;;13.10;82.00;;;;;;4949653;28;20241;-84
2024/03/06 14:24:57;;;;;;;4.97;2.73;;;13.10;82.40;;;;;;4954386;28;20433;-86
2024/03/06 14:27:23;;;;;;;5.43;2.90;;;13.20;81.20;;;;;;4950548;28;20214;-84
2024/03/06 14:29:48;;;;;;;5.27;2.37;;;13.10;80.60;;;;;;4950695;28;20440;-81
2024/03/06 14:32:18;;;;;;;14.33;5.70;;;13.20;81.30;;;;;;4954122;28;20588;-84
2024/03/06 14:34:43;;;;;;;10.73;4.07;;;13.30;80.70;;;;;;4953985;28;20237;-85
2024/03/06 14:37:09;;;;;;;3.80;2.73;;;13.10;81.30;;;;;;4951462;28;20434;-84
2024/03/06 14:39:34;;;;;;;3.53;2.70;;;13.10;81.70;;;;;;4954200;28;20183;-84
2024/03/06 14:42:00;;;;;;;5.53;4.13;;;13.00;82.00;;;;;;4953801;28;20434;-85
2024/03/06 14:44:26;;;;;;;6.73;4.00;;;13.10;83.10;;;;;;4971285;28;20241;-84
2024/03/06 14:46:51;;;;;;;4.77;2.50;;;12.70;83.30;;;;;;4968020;28;20261;-84
2024/03/06 14:49:17;;;;;;;6.00;3.17;;;12.50;84.80;;;;;;4954041;28;20179;-85
2024/03/06 14:51:43;;;;;;;3.70;2.50;;;12.50;83.90;;;;;;4973739;28;20205;-85
2024/03/06 14:54:08;;;;;;;3.43;3.00;;;12.80;83.60;;;;;;4960848;28;20187;-84
2024/03/06 14:56:34;;;;;;;4.50;2.63;;;13.20;83.40;;;;;;4957058;28;20568;-84
2024/03/06 14:58:59;;;;;;;4.13;3.03;;;13.40;81.40;;;;;;4957422;28;20281;-84
2024/03/06 15:01:25;;;;;;;5.43;3.00;;;13.40;81.00;;;;;;4950691;28;20207;-84
2024/03/06 15:03:54;;;;;;;3.00;2.70;;;13.10;80.90;;;;;;4957260;28;20187;-84
2024/03/06 15:06:20;;;;;;;4.10;3.07;;;13.20;81.30;;;;;;4957038;28;20198;-84
2024/03/06 15:08:46;;;;;;;4.47;2.43;;;13.40;81.20;;;;;;4950374;28;21076;-84
2024/03/06 15:11:11;;;;;;;4.57;3.50;;;13.60;80.90;;;;;;4950477;28;20209;-85
2024/03/06 15:13:37;;;;;;;5.10;3.90;;;13.00;81.70;;;;;;4952745;28;20179;-85
2024/03/06 15:16:08;;;;;;;5.20;3.10;;;12.90;81.60;;;;;;4951938;28;20723;-85
2024/03/06 15:18:33;;;;;;;4.20;3.43;;;12.20;82.30;;;;;;4970935;28;20183;-85
2024/03/06 15:20:59;;;;;;;2.17;1.73;;;12.40;82.90;;;;;;4953254;28;20433;-84
2024/03/06 15:23:24;;;;;;;3.10;1.70;;;12.40;81.70;;;;;;4956355;28;20652;-84
2024/03/06 15:25:50;;;;;;;6.17;2.70;;;12.30;81.70;;;;;;4956554;28;20249;-85
2024/03/06 15:28:16;;;;;;;4.63;1.73;;;11.50;82.90;;;;;;4958446;28;20290;-85
2024/03/06 15:30:41;;;;;;;3.17;2.37;;;11.00;84.50;;;;;;4964386;28;20175;-86
2024/03/06 15:33:07;;;;;;;5.13;3.60;;;10.50;85.80;;;;;;4952938;28;20213;-85
2024/03/06 15:35:33;;;;;;;5.57;2.83;;;10.40;87.30;;;;;;4970527;28;20653;-85
2024/03/06 15:37:58;;;;;;;1.87;1.37;;;10.90;87.50;;;;;;4956226;28;20477;-85
2024/03/06 15:40:24;;;;;;;1.73;1.63;;;11.60;86.60;;;;;;4953396;28;20653;-84
2024/03/06 15:42:50;;;;;;;7.63;3.77;;;11.90;84.80;;;;;;4953205;28;20202;-84
2024/03/06 15:45:16;;;;;;;8.43;2.90;;;12.10;84.50;;;;;;4950931;28;20436;-84
2024/03/06 15:47:43;;;;;;;4.50;3.47;;;12.50;83.80;;;;;;4953516;28;20226;-84
2024/03/06 15:50:10;;;;;;;2.40;2.23;;;12.30;82.70;;;;;;4951119;28;20174;-84
2024/03/06 15:52:37;;;;;;;11.10;6.00;;;11.40;83.50;;;;;;4951389;28;20448;-85
2024/03/06 15:55:04;;;;;;;19.93;2.53;;;10.60;85.70;;;;;;4951010;28;20426;-84
2024/03/06 15:57:31;;;;;;;7.13;2.50;;;10.00;87.30;;;;;;4974083;28;20418;-84
2024/03/06 15:59:57;;;;;;;4.00;3.03;;;9.50;88.50;;;;;;4956525;28;20449;-85
2024/03/06 16:02:23;;;;;;;2.73;2.20;;;9.20;89.50;;;;;;4955612;28;20840;-84
2024/03/06 16:04:49;;;;;;;6.33;3.13;;;9.00;90.80;;;;;;4953527;28;20190;-85
2024/03/06 16:07:15;;;;;;;3.40;3.00;;;8.80;90.60;;;;;;4955323;28;20457;-85
2024/03/06 16:09:40;;;;;;;4.77;3.93;;;8.70;91.40;;;;;;4950677;28;20187;-85
2024/03/06 16:12:06;;;;;;;2.00;1.87;;;8.60;92.40;;;;;;4950433;28;20435;-84
2024/03/06 16:14:31;;;;;;;8.37;2.73;;;8.50;92.50;;;;;;4952928;28;20191;-84
2024/03/06 16:16:57;;;;;;;1.93;1.83;;;8.50;92.80;;;;;;4954674;28;20584;-84
2024/03/06 16:19:23;;;;;;;2.17;2.00;;;8.40;93.70;;;;;;4951256;28;20214;-85
2024/03/06 16:21:49;;;;;;;2.27;2.10;;;8.30;93.70;;;;;;4952900;28;20332;-84
2024/03/06 16:24:15;;;;;;;2.73;1.80;;;8.20;94.00;;;;;;4955062;28;20426;-84
2024/03/06 16:26:41;;;;;;;2.10;1.80;;;8.10;94.40;;;;;;4952753;28;20834;-85
2024/03/06 16:29:06;;;;;;;5.40;2.43;;;8.00;94.80;;;;;;4950313;28;20178;-85
2024/03/06 16:31:32;;;;;;;4.83;2.33;;;7.80;95.20;;;;;;4950180;28;20198;-85
2024/03/06 16:33:57;;;;;;;8.80;1.50;;;7.70;95.80;;;;;;4952859;28;20245;-84
2024/03/06 16:36:23;;;;;;;7.03;2.83;;;7.70;96.10;;;;;;4953056;28;20665;-84
2024/03/06 16:38:48;;;;;;;11.70;3.60;;;7.50;96.50;;;;;;4970071;28;20182;-86
2024/03/06 16:41:14;;;;;;;1.07;0.97;;;7.40;96.30;;;;;;4955112;28;20338;-85
2024/03/06 16:43:40;;;;;;;3.27;2.60;;;7.30;96.60;;;;;;4952945;28;20187;-84
2024/03/06 16:46:06;;;;;;;2.30;1.63;;;7.20;96.90;;;;;;4955014;28;20692;-84
2024/03/06 16:48:32;;;;;;;2.40;1.80;;;7.10;97.10;;;;;;4972195;28;20820;-85
2024/03/06 16:50:58;;;;;;;1.47;1.30;;;7.10;97.10;;;;;;4961050;28;20520;-84
2024/03/06 16:53:23;;;;;;;4.57;2.37;;;7.00;97.30;;;;;;4953596;28;20484;-84
2024/03/06 16:55:49;;;;;;;2.20;2.03;;;6.90;97.30;;;;;;4951793;28;20174;-84
2024/03/06 16:58:14;;;;;;;1.93;1.83;;;6.80;97.30;;;;;;4954119;28;20572;-84
2024/03/06 17:00:41;;;;;;;1.73;1.63;;;6.80;97.30;;;;;;4971710;28;20269;-84
2024/03/06 17:03:07;;;;;;;7.30;4.00;;;6.70;97.30;;;;;;4952481;28;20724;-84
2024/03/06 17:05:32;;;;;;;1.87;1.77;;;6.70;97.30;;;;;;4952658;28;20508;-84
2024/03/06 17:07:58;;;;;;;3.40;1.73;;;6.70;97.30;;;;;;4969417;28;20213;-84
2024/03/06 17:10:25;;;;;;;3.17;2.13;;;6.60;97.30;;;;;;4954553;28;20174;-84
2024/03/06 17:12:51;;;;;;;5.43;2.63;;;6.60;97.30;;;;;;4971051;28;20458;-84
2024/03/06 17:15:16;;;;;;;2.47;2.33;;;6.60;97.30;;;;;;4952409;28;21029;-84
2024/03/06 17:17:42;;;;;;;1.87;1.27;;;6.60;97.30;;;;;;4953546;28;20331;-84
2024/03/06 17:20:08;;;;;;;1.13;1.10;;;6.60;97.30;;;;;;4952385;28;20201;-84
2024/03/06 17:22:33;;;;;;;1.77;1.67;;;6.60;97.30;;;;;;4969509;28;20230;-84
2024/03/06 17:24:59;;;;;;;2.40;1.77;;;6.50;97.30;;;;;;4950511;28;20958;-84
2024/03/06 17:27:24;;;;;;;2.93;1.90;;;6.50;97.30;;;;;;4954435;28;20656;-85
2024/03/06 17:29:50;;;;;;;4.77;2.77;;;6.50;97.30;;;;;;4952607;28;20645;-84
2024/03/06 17:32:21;;;;;;;3.73;2.40;;;6.60;97.30;;;;;;4952348;28;20727;-84
2024/03/06 17:34:49;;;;;;;5.40;2.10;;;6.60;97.30;;;;;;4954110;28;20188;-84
2024/03/06 17:37:15;;;;;;;1.27;1.20;;;6.60;97.30;;;;;;4954287;28;20426;-84
2024/03/06 17:39:40;;;;;;;13.10;2.13;;;6.60;97.30;;;;;;4953488;28;20803;-84
2024/03/06 17:42:06;;;;;;;5.67;2.67;;;6.60;97.30;;;;;;4968873;28;20313;-84
2024/03/06 17:44:31;;;;;;;2.17;2.00;;;6.60;97.30;;;;;;4968584;28;20201;-84
2024/03/06 17:46:57;;;;;;;2.87;1.87;;;6.60;97.30;;;;;;4954091;28;20206;-84
2024/03/06 17:49:23;;;;;;;1.90;1.10;;;6.60;97.30;;;;;;4967518;28;20653;-84
2024/03/06 17:51:50;;;;;;;3.33;2.63;;;6.60;97.30;;;;;;4967514;28;20583;-84
2024/03/06 17:54:16;;;;;;;2.80;1.37;;;6.60;97.30;;;;;;4970200;28;20429;-84